Time;durP1;ratioP1;P1;durP2;ratioP2;P2;SDS_P1;SDS_P2;PMS_P1;PMS_P2;Temp;Humidity;BMP_temperature;BMP_pressure;BME280_temperature;BME280_humidity;BME280_pressure;Samples;Min_cycle;Max_cycle;Signal;HPM_P1;HPM_P2
2021/06/03 00:02:10;;;;;;;7.77;5.87;;;;;;;;;;5011395;28;20195;-78
2021/06/03 00:04:36;;;;;;;7.03;5.67;;;;;;;;;;5011456;28;20581;-82
2021/06/03 00:07:02;;;;;;;6.80;5.77;;;;;;;;;;4989406;28;20195;-82
2021/06/03 00:09:27;;;;;;;7.13;6.20;;;;;;;;;;5009241;28;20194;-82
2021/06/03 00:11:53;;;;;;;11.50;6.33;;;;;;;;;;5006963;28;20208;-82
2021/06/03 00:14:18;;;;;;;7.20;6.23;;;;;;;;;;5009414;28;20190;-80
2021/06/03 00:16:46;;;;;;;6.37;5.77;;;;;;;;;;5011821;28;20187;-81
2021/06/03 00:19:12;;;;;;;5.90;5.30;;;;;;;;;;5001727;28;20191;-82
2021/06/03 00:21:39;;;;;;;6.83;5.90;;;;;;;;;;5008360;28;20195;-81
2021/06/03 00:24:06;;;;;;;7.53;5.40;;;;;;;;;;5006994;28;20295;-80
2021/06/03 00:26:33;;;;;;;6.43;5.77;;;;;;;;;;5005928;28;20199;-81
2021/06/03 00:28:59;;;;;;;8.47;5.93;;;;;;;;;;5012054;28;20574;-82
2021/06/03 00:31:24;;;;;;;9.00;6.00;;;;;;;;;;4999598;28;20216;-82
2021/06/03 00:33:49;;;;;;;6.90;6.10;;;;;;;;;;5005839;28;20216;-81
2021/06/03 00:36:16;;;;;;;8.07;5.83;;;;;;;;;;4999409;28;20622;-82
2021/06/03 00:38:41;;;;;;;8.83;6.50;;;;;;;;;;4996866;28;20200;-81
2021/06/03 00:41:08;;;;;;;8.90;6.77;;;;;;;;;;4999414;28;20186;-81
2021/06/03 00:43:34;;;;;;;7.10;6.30;;;;;;;;;;5006888;28;20226;-81
2021/06/03 00:45:59;;;;;;;7.00;6.30;;;;;;;;;;5005479;28;20793;-82
2021/06/03 00:48:25;;;;;;;8.63;6.57;;;;;;;;;;5007767;28;20574;-81
2021/06/03 00:50:53;;;;;;;9.63;6.20;;;;;;;;;;5008764;28;20199;-81
2021/06/03 00:53:19;;;;;;;7.57;6.77;;;;;;;;;;5004568;28;20661;-82
2021/06/03 00:55:54;;;;;;;6.53;5.93;;;;;;;;;;5003860;28;20199;-82
2021/06/03 00:58:20;;;;;;;7.60;6.33;;;;;;;;;;5000851;28;20199;-81
2021/06/03 01:00:49;;;;;;;6.80;6.10;;;;;;;;;;5006619;28;20688;-81
2021/06/03 01:03:15;;;;;;;9.20;6.60;;;;;;;;;;5008421;28;20198;-81
2021/06/03 01:05:49;;;;;;;8.80;6.77;;;;;;;;;;5004605;28;20194;-81
2021/06/03 01:08:17;;;;;;;7.00;6.00;;;;;;;;;;5004408;28;20214;-81
2021/06/03 01:10:53;;;;;;;7.70;5.87;;;;;;;;;;5003560;28;20551;-81
2021/06/03 01:13:38;;;;;;;8.80;5.77;;;;;;;;;;5009599;28;20239;-81
2021/06/03 01:16:07;;;;;;;6.13;5.53;;;;;;;;;;5004861;28;20242;-82
2021/06/03 01:18:35;;;;;;;5.77;5.17;;;;;;;;;;5007536;28;20187;-80
2021/06/03 01:21:06;;;;;;;7.00;5.40;;;;;;;;;;5005264;28;20191;-81
2021/06/03 01:24:07;;;;;;;7.67;6.20;;;;;;;;;;4998394;28;20212;-81
2021/06/03 01:26:33;;;;;;;8.13;5.57;;;;;;;;;;5007730;28;20196;-82
2021/06/03 01:28:58;;;;;;;6.80;6.03;;;;;;;;;;5009353;28;20721;-83
2021/06/03 01:31:26;;;;;;;6.60;5.50;;;;;;;;;;5003220;28;20210;-81
2021/06/03 01:33:52;;;;;;;9.60;6.17;;;;;;;;;;5003302;28;20207;-82
2021/06/03 01:36:19;;;;;;;7.97;6.77;;;;;;;;;;4987535;28;20187;-83
2021/06/03 01:38:46;;;;;;;9.63;6.60;;;;;;;;;;5001979;28;20187;-81
2021/06/03 01:41:14;;;;;;;7.63;6.90;;;;;;;;;;5008990;28;20224;-81
2021/06/03 01:43:44;;;;;;;7.90;6.73;;;;;;;;;;5009063;28;20229;-82
2021/06/03 01:46:10;;;;;;;7.10;5.77;;;;;;;;;;5002788;28;20184;-80
2021/06/03 01:48:36;;;;;;;10.03;6.10;;;;;;;;;;5008813;28;20187;-80
2021/06/03 01:51:07;;;;;;;6.67;5.93;;;;;;;;;;5006539;28;20234;-81
2021/06/03 01:53:33;;;;;;;7.77;6.30;;;;;;;;;;4993468;28;20238;-81
2021/06/03 01:56:08;;;;;;;7.53;5.87;;;;;;;;;;5000153;28;20192;-81
2021/06/03 01:58:34;;;;;;;7.37;5.67;;;;;;;;;;5010271;28;20201;-81
2021/06/03 02:01:00;;;;;;;6.30;5.30;;;;;;;;;;5007871;28;20187;-81
2021/06/03 02:03:26;;;;;;;7.13;5.83;;;;;;;;;;5007861;28;20221;-81
2021/06/03 02:05:52;;;;;;;6.90;5.80;;;;;;;;;;5007325;28;20198;-81
2021/06/03 02:08:18;;;;;;;6.20;5.60;;;;;;;;;;5004831;28;20183;-83
2021/06/03 02:10:43;;;;;;;7.13;5.83;;;;;;;;;;5003592;28;20237;-82
2021/06/03 02:13:25;;;;;;;7.97;6.20;;;;;;;;;;5005427;28;20215;-82
2021/06/03 02:15:55;;;;;;;7.30;5.83;;;;;;;;;;5002942;28;20183;-82
2021/06/03 02:18:27;;;;;;;6.67;6.07;;;;;;;;;;5001608;28;20675;-81
2021/06/03 02:20:53;;;;;;;7.10;6.00;;;;;;;;;;5007905;28;20179;-83
2021/06/03 02:23:19;;;;;;;7.33;6.27;;;;;;;;;;5002550;28;20215;-82
2021/06/03 02:25:45;;;;;;;7.93;6.50;;;;;;;;;;5004458;28;20682;-80
2021/06/03 02:28:14;;;;;;;7.47;6.57;;;;;;;;;;4999918;28;20187;-81
2021/06/03 02:30:39;;;;;;;8.67;6.87;;;;;;;;;;5007229;28;20554;-80
2021/06/03 02:33:05;;;;;;;8.73;6.93;;;;;;;;;;5007792;28;20199;-81
2021/06/03 02:35:30;;;;;;;8.80;6.70;;;;;;;;;;5007632;28;20562;-83
2021/06/03 02:37:56;;;;;;;8.13;7.10;;;;;;;;;;5004872;28;20668;-81
2021/06/03 02:40:25;;;;;;;9.13;7.27;;;;;;;;;;5005174;28;20542;-82
2021/06/03 02:42:51;;;;;;;8.27;7.47;;;;;;;;;;5007989;28;20203;-81
2021/06/03 02:45:21;;;;;;;7.87;7.07;;;;;;;;;;5006188;28;20340;-81
2021/06/03 02:47:46;;;;;;;7.60;6.80;;;;;;;;;;5004977;28;20245;-82
2021/06/03 02:50:14;;;;;;;8.07;7.20;;;;;;;;;;5004108;28;20191;-82
2021/06/03 02:52:40;;;;;;;7.90;7.10;;;;;;;;;;5006994;28;20286;-83
2021/06/03 02:55:09;;;;;;;7.90;7.10;;;;;;;;;;5005014;28;20547;-81
2021/06/03 02:57:34;;;;;;;8.40;7.20;;;;;;;;;;5005011;28;20191;-80
2021/06/03 03:00:02;;;;;;;7.87;7.10;;;;;;;;;;5005948;28;20187;-81
2021/06/03 03:02:27;;;;;;;10.03;7.60;;;;;;;;;;5005794;28;23703;-80
2021/06/03 03:04:52;;;;;;;7.80;7.03;;;;;;;;;;5009584;28;20183;-83
2021/06/03 03:07:18;;;;;;;9.53;7.53;;;;;;;;;;5007410;28;20230;-83
2021/06/03 03:09:43;;;;;;;9.77;8.03;;;;;;;;;;5003210;28;20230;-81
2021/06/03 03:12:09;;;;;;;10.37;7.40;;;;;;;;;;5002387;28;20199;-81
2021/06/03 03:14:36;;;;;;;9.07;7.57;;;;;;;;;;4994462;28;20198;-82
2021/06/03 03:17:02;;;;;;;9.53;7.40;;;;;;;;;;5009126;28;20567;-81
2021/06/03 03:19:28;;;;;;;9.67;8.07;;;;;;;;;;5008262;28;20187;-79
2021/06/03 03:21:53;;;;;;;9.20;7.37;;;;;;;;;;5007898;28;20194;-82
2021/06/03 03:24:19;;;;;;;8.57;7.17;;;;;;;;;;5002357;28;20187;-81
2021/06/03 03:26:46;;;;;;;8.80;7.90;;;;;;;;;;5003749;28;20678;-78
2021/06/03 03:29:12;;;;;;;8.63;7.77;;;;;;;;;;4990543;28;20202;-81
2021/06/03 03:31:37;;;;;;;8.90;8.00;;;;;;;;;;5006062;28;20207;-82
2021/06/03 03:34:05;;;;;;;8.83;6.47;;;;;;;;;;5006108;28;20736;-82
2021/06/03 03:36:30;;;;;;;8.83;7.70;;;;;;;;;;5003700;28;20330;-83
2021/06/03 03:38:59;;;;;;;11.47;8.63;;;;;;;;;;5006899;28;20266;-82
2021/06/03 03:41:24;;;;;;;8.67;7.77;;;;;;;;;;5006831;28;20183;-81
2021/06/03 03:43:50;;;;;;;10.30;7.93;;;;;;;;;;4989843;28;20211;-81
2021/06/03 03:46:17;;;;;;;16.87;7.60;;;;;;;;;;5004750;28;20214;-82
2021/06/03 03:48:42;;;;;;;9.73;8.73;;;;;;;;;;5007275;28;20195;-81
2021/06/03 03:51:10;;;;;;;9.83;8.43;;;;;;;;;;5004821;28;20608;-82
2021/06/03 03:53:35;;;;;;;8.53;7.70;;;;;;;;;;5006436;28;20235;-82
2021/06/03 03:56:00;;;;;;;8.03;7.20;;;;;;;;;;4999151;28;20925;-82
2021/06/03 03:58:25;;;;;;;9.63;8.10;;;;;;;;;;5003727;28;20195;-81
2021/06/03 04:00:51;;;;;;;9.07;7.47;;;;;;;;;;5006865;28;20195;-81
2021/06/03 04:03:16;;;;;;;10.20;8.50;;;;;;;;;;5007129;28;20315;-81
2021/06/03 04:05:44;;;;;;;11.90;8.13;;;;;;;;;;5001158;28;20190;-81
2021/06/03 04:08:09;;;;;;;10.13;8.10;;;;;;;;;;5003168;28;20188;-79
2021/06/03 04:10:36;;;;;;;8.00;7.20;;;;;;;;;;5004719;28;20211;-81
2021/06/03 04:13:01;;;;;;;9.73;7.70;;;;;;;;;;5006061;28;20293;-81
2021/06/03 04:15:27;;;;;;;9.77;7.90;;;;;;;;;;5004813;28;20283;-83
2021/06/03 04:17:52;;;;;;;9.23;8.23;;;;;;;;;;5000418;28;20187;-83
2021/06/03 04:20:20;;;;;;;9.00;7.37;;;;;;;;;;5001913;28;20192;-82
2021/06/03 04:22:46;;;;;;;14.43;8.00;;;;;;;;;;5003045;28;20691;-83
2021/06/03 04:25:13;;;;;;;9.50;7.93;;;;;;;;;;5011278;28;20202;-81
2021/06/03 04:27:39;;;;;;;11.03;6.63;;;;;;;;;;5005500;28;20192;-81
2021/06/03 04:30:08;;;;;;;6.27;5.07;;;;;;;;;;5009214;28;20199;-83
2021/06/03 04:32:36;;;;;;;7.50;6.80;;;;;;;;;;5009419;28;20223;-81
2021/06/03 04:35:03;;;;;;;10.17;7.83;;;;;;;;;;4994844;28;20198;-80
2021/06/03 04:37:29;;;;;;;9.17;7.70;;;;;;;;;;5010186;28;20226;-81
2021/06/03 04:39:54;;;;;;;11.17;7.67;;;;;;;;;;5007460;28;20207;-81
2021/06/03 04:42:19;;;;;;;7.87;6.17;;;;;;;;;;5007645;28;20213;-81
2021/06/03 04:44:45;;;;;;;7.83;5.03;;;;;;;;;;5008817;28;20187;-82
2021/06/03 04:47:11;;;;;;;8.50;7.10;;;;;;;;;;5006087;28;20263;-81
2021/06/03 04:49:36;;;;;;;5.37;4.83;;;;;;;;;;5001105;28;20541;-81
2021/06/03 04:52:25;;;;;;;6.43;5.33;;;;;;;;;;5007623;28;20208;-81
2021/06/03 04:54:47;;;;;;;7.00;5.87;;;;;;;;;;5008439;28;20762;-79
2021/06/03 04:57:13;;;;;;;10.20;8.60;;;;;;;;;;5001876;28;20286;-81
2021/06/03 04:59:40;;;;;;;7.70;6.47;;;;;;;;;;5010390;28;20191;-80
2021/06/03 05:02:05;;;;;;;11.53;8.33;;;;;;;;;;5008943;28;20682;-82
2021/06/03 05:04:31;;;;;;;9.30;8.40;;;;;;;;;;5008258;28;20195;-82
2021/06/03 05:06:56;;;;;;;12.93;8.37;;;;;;;;;;5006443;28;20859;-81
2021/06/03 05:09:21;;;;;;;9.70;8.70;;;;;;;;;;5009358;28;20191;-82
2021/06/03 05:11:47;;;;;;;9.70;8.57;;;;;;;;;;5011633;28;20203;-82
2021/06/03 05:14:14;;;;;;;10.87;7.10;;;;;;;;;;5008239;28;20215;-81
2021/06/03 05:16:42;;;;;;;10.33;7.93;;;;;;;;;;5009863;28;20277;-82
2021/06/03 05:19:07;;;;;;;10.33;7.63;;;;;;;;;;5002520;28;20199;-82
2021/06/03 05:21:32;;;;;;;12.53;7.83;;;;;;;;;;5010354;28;20258;-82
2021/06/03 05:23:58;;;;;;;8.07;7.20;;;;;;;;;;5006638;28;20215;-81
2021/06/03 05:26:23;;;;;;;9.00;8.10;;;;;;;;;;4998956;28;20199;-79
2021/06/03 05:28:48;;;;;;;7.03;6.30;;;;;;;;;;5008808;28;20222;-80
2021/06/03 05:31:14;;;;;;;9.37;7.00;;;;;;;;;;5010279;28;20677;-82
2021/06/03 05:33:39;;;;;;;13.13;8.50;;;;;;;;;;5008366;28;20211;-82
2021/06/03 05:36:07;;;;;;;10.13;8.07;;;;;;;;;;5008707;28;20214;-80
2021/06/03 05:38:33;;;;;;;6.10;4.07;;;;;;;;;;5007452;28;20636;-81
2021/06/03 05:41:00;;;;;;;10.47;7.70;;;;;;;;;;5005647;28;20188;-81
2021/06/03 05:43:26;;;;;;;9.03;8.10;;;;;;;;;;5006920;28;20222;-82
2021/06/03 05:45:51;;;;;;;10.60;9.43;;;;;;;;;;5002503;28;20188;-81
2021/06/03 05:48:17;;;;;;;9.73;8.67;;;;;;;;;;5005522;28;20274;-83
2021/06/03 05:50:42;;;;;;;11.37;8.83;;;;;;;;;;5004319;28;20188;-82
2021/06/03 05:53:07;;;;;;;10.87;6.93;;;;;;;;;;5007785;28;20214;-82
2021/06/03 05:55:33;;;;;;;6.53;5.47;;;;;;;;;;5009772;28;20326;-83
2021/06/03 05:57:58;;;;;;;8.87;7.93;;;;;;;;;;5002739;28;20218;-82
2021/06/03 06:00:28;;;;;;;8.23;5.10;;;;;;;;;;5007807;28;20274;-81
2021/06/03 06:03:06;;;;;;;8.50;7.60;;;;;;;;;;5004121;28;20235;-81
2021/06/03 06:08:17;;;;;;;15.20;7.97;;;;;;;;;;5006804;28;20323;-80
2021/06/03 06:10:43;;;;;;;9.47;8.57;;;;;;;;;;4997603;28;20665;-80
2021/06/03 06:13:09;;;;;;;10.53;8.33;;;;;;;;;;4997141;28;20626;-80
2021/06/03 06:15:36;;;;;;;9.63;8.63;;;;;;;;;;4995847;28;20569;-81
2021/06/03 06:18:02;;;;;;;7.60;6.20;;;;;;;;;;4995920;28;20192;-82
2021/06/03 06:20:28;;;;;;;6.93;5.93;;;;;;;;;;4999788;28;20259;-81
2021/06/03 06:22:54;;;;;;;8.13;7.30;;;;;;;;;;4996736;28;20688;-81
2021/06/03 06:25:20;;;;;;;8.57;7.63;;;;;;;;;;5003777;28;20187;-80
2021/06/03 06:27:45;;;;;;;8.53;6.97;;;;;;;;;;5002431;28;20603;-83
2021/06/03 06:30:12;;;;;;;7.97;7.17;;;;;;;;;;5009291;28;20215;-76
2021/06/03 06:32:38;;;;;;;7.37;6.63;;;;;;;;;;4993575;28;20245;-83
2021/06/03 06:35:06;;;;;;;6.97;5.80;;;;;;;;;;5007281;28;20187;-83
2021/06/03 06:37:32;;;;;;;6.97;6.20;;;;;;;;;;5004274;28;20246;-81
2021/06/03 06:39:58;;;;;;;9.60;5.60;;;;;;;;;;5004420;28;20187;-81
2021/06/03 06:42:24;;;;;;;8.07;6.83;;;;;;;;;;5005674;28;20714;-80
2021/06/03 06:44:49;;;;;;;7.53;6.60;;;;;;;;;;5004744;28;20192;-81
2021/06/03 06:47:14;;;;;;;9.32;6.47;;;;;;;;;;5004410;28;20692;-85
2021/06/03 06:49:40;;;;;;;9.20;7.32;;;;;;;;;;5006273;28;20207;-84
2021/06/03 06:52:05;;;;;;;7.45;5.97;;;;;;;;;;4992808;28;20699;-84
2021/06/03 06:54:30;;;;;;;7.38;6.68;;;;;;;;;;4992384;28;20184;-81
2021/06/03 06:56:58;;;;;;;9.27;5.90;;;;;;;;;;5002364;28;20193;-80
2021/06/03 06:59:23;;;;;;;8.00;5.75;;;;;;;;;;5005058;28;20666;-77
2021/06/03 07:01:49;;;;;;;7.10;6.15;;;;;;;;;;4981353;28;20179;-81
2021/06/03 07:04:17;;;;;;;12.48;7.15;;;;;;;;;;5002848;28;20204;-80
2021/06/03 07:06:43;;;;;;;7.50;6.75;;;;;;;;;;4999253;28;20190;-79
2021/06/03 07:09:08;;;;;;;5.47;4.85;;;;;;;;;;5001524;28;20199;-78
2021/06/03 07:11:34;;;;;;;12.98;5.68;;;;;;;;;;5003157;28;20218;-80
2021/06/03 07:14:03;;;;;;;7.10;5.90;;;;;;;;;;4983840;28;20274;-80
2021/06/03 07:16:31;;;;;;;7.47;6.63;;;;;;;;;;4989829;28;20565;-79
2021/06/03 07:18:56;;;;;;;7.18;6.43;;;;;;;;;;5000996;28;20191;-75
2021/06/03 07:21:24;;;;;;;8.52;6.15;;;;;;;;;;5006003;28;20242;-75
2021/06/03 07:23:49;;;;;;;10.20;6.50;;;;;;;;;;5006777;28;20211;-80
2021/06/03 07:26:14;;;;;;;7.28;6.22;;;;;;;;;;5004977;28;20187;-77
2021/06/03 07:28:42;;;;;;;6.20;5.60;;;;;;;;;;5007325;28;20191;-79
2021/06/03 07:31:08;;;;;;;6.78;6.10;;;;;;;;;;5010557;28;20225;-79
2021/06/03 07:33:34;;;;;;;6.95;6.20;;;;;;;;;;4989003;28;20682;-80
2021/06/03 07:36:02;;;;;;;7.72;6.60;;;;;;;;;;5005209;28;20281;-79
2021/06/03 07:38:27;;;;;;;7.05;6.43;;;;;;;;;;5001887;28;20650;-79
2021/06/03 07:40:52;;;;;;;6.38;5.75;;;;;;;;;;5006878;28;20189;-78
2021/06/03 07:43:18;;;;;;;7.47;6.57;;;;;;;;;;5007240;28;20214;-80
2021/06/03 07:45:44;;;;;;;7.57;6.18;;;;;;;;;;5002748;28;20183;-81
2021/06/03 07:48:10;;;;;;;7.30;6.57;;;;;;;;;;5006511;28;20183;-80
2021/06/03 07:50:36;;;;;;;7.18;6.47;;;;;;;;;;5007637;28;20179;-76
2021/06/03 07:53:05;;;;;;;8.10;6.97;;;;;;;;;;5000512;28;20215;-76
2021/06/03 07:55:31;;;;;;;7.07;6.35;;;;;;;;;;5001494;28;20201;-75
2021/06/03 07:58:00;;;;;;;9.93;6.28;;;;;;;;;;5000542;28;20187;-75
2021/06/03 08:00:28;;;;;;;6.72;6.13;;;;;;;;;;4992883;28;20180;-75
2021/06/03 08:02:53;;;;;;;7.38;6.13;;;;;;;;;;5002594;28;20202;-75
2021/06/03 08:05:21;;;;;;;8.27;5.38;;;;;;;;;;5002526;28;20270;-75
2021/06/03 08:07:48;;;;;;;6.93;6.10;;;;;;;;;;4995323;28;20270;-75
2021/06/03 08:10:15;;;;;;;5.90;5.40;;;;;;;;;;4999905;28;20195;-76
2021/06/03 08:12:41;;;;;;;6.45;5.85;;;;;;;;;;5008060;28;20239;-75
2021/06/03 08:15:09;;;;;;;7.68;6.03;;;;;;;;;;5003221;28;20222;-76
2021/06/03 08:17:36;;;;;;;8.90;5.80;;;;;;;;;;5005730;28;20218;-74
2021/06/03 08:20:06;;;;;;;6.32;5.53;;;;;;;;;;4987198;28;20659;-74
2021/06/03 08:22:33;;;;;;;6.38;5.43;;;;;;;;;;5007689;28;20294;-76
2021/06/03 08:24:58;;;;;;;5.97;5.22;;;;;;;;;;5003952;28;20579;-76
2021/06/03 08:27:24;;;;;;;7.65;5.55;;;;;;;;;;5002167;28;20208;-79
2021/06/03 08:29:49;;;;;;;6.22;5.63;;;;;;;;;;5004722;28;20195;-75
2021/06/03 08:32:14;;;;;;;7.47;5.68;;;;;;;;;;5005159;28;20215;-73
2021/06/03 08:34:42;;;;;;;7.35;5.55;;;;;;;;;;5007392;28;20179;-74
2021/06/03 08:37:07;;;;;;;9.32;6.32;;;;;;;;;;5004263;28;20202;-75
2021/06/03 08:39:33;;;;;;;7.18;5.85;;;;;;;;;;5008077;28;20187;-74
2021/06/03 08:41:58;;;;;;;6.60;5.90;;;;;;;;;;5003976;28;20196;-73
2021/06/03 08:44:28;;;;;;;8.43;5.65;;;;;;;;;;5007243;28;21084;-75
2021/06/03 08:46:55;;;;;;;7.30;5.18;;;;;;;;;;5003264;28;20187;-74
2021/06/03 08:49:20;;;;;;;6.43;5.03;;;;;;;;;;4989795;28;20183;-75
2021/06/03 08:51:45;;;;;;;6.72;5.47;;;;;;;;;;5005038;28;20702;-74
2021/06/03 08:54:11;;;;;;;5.20;4.80;;;;;;;;;;4991030;28;20219;-74
2021/06/03 08:56:36;;;;;;;5.88;5.38;;;;;;;;;;5005098;28;20210;-75
2021/06/03 08:59:02;;;;;;;5.72;4.95;;;;;;;;;;5006322;28;20183;-75
2021/06/03 09:01:29;;;;;;;5.82;5.20;;;;;;;;;;5007796;28;20211;-75
2021/06/03 09:03:56;;;;;;;6.18;4.70;;;;;;;;;;5007954;28;20215;-74
2021/06/03 09:06:22;;;;;;;7.53;5.28;;;;;;;;;;5006057;28;20666;-75
2021/06/03 09:08:59;;;;;;;6.15;5.55;;;;;;;;;;5000139;28;20182;-75
2021/06/03 09:11:30;;;;;;;7.53;5.90;;;;;;;;;;5003535;28;20226;-75
2021/06/03 09:13:58;;;;;;;6.00;4.78;;;;;;;;;;5007959;28;20233;-76
2021/06/03 09:16:26;;;;;;;5.80;5.18;;;;;;;;;;5001182;28;20195;-75
2021/06/03 09:18:57;;;;;;;6.13;5.43;;;;;;;;;;5000771;28;20195;-74
2021/06/03 09:21:26;;;;;;;5.50;4.95;;;;;;;;;;4999633;28;20187;-76
2021/06/03 09:23:56;;;;;;;5.95;5.35;;;;;;;;;;5007289;28;20250;-74
2021/06/03 09:26:25;;;;;;;6.15;5.30;;;;;;;;;;4980306;28;20269;-76
2021/06/03 09:28:52;;;;;;;6.55;5.82;;;;;;;;;;4995808;28;20196;-75
2021/06/03 09:31:22;;;;;;;8.20;5.45;;;;;;;;;;4991716;28;20187;-75
2021/06/03 09:33:49;;;;;;;5.85;5.10;;;;;;;;;;4997792;28;20235;-75
2021/06/03 09:36:24;;;;;;;5.78;5.22;;;;;;;;;;5007518;28;20191;-74
2021/06/03 09:38:56;;;;;;;5.53;4.97;;;;;;;;;;5005034;28;20187;-76
2021/06/03 09:41:22;;;;;;;5.80;5.30;;;;;;;;;;5007612;28;20191;-74
2021/06/03 09:43:48;;;;;;;5.90;5.30;;;;;;;;;;5009187;28;20219;-76
2021/06/03 09:46:15;;;;;;;7.68;5.38;;;;;;;;;;5010195;28;20651;-76
2021/06/03 09:48:45;;;;;;;6.03;4.68;;;;;;;;;;5009244;28;20199;-76
2021/06/03 09:51:37;;;;;;;9.43;5.05;;;;;;;;;;5004476;28;20195;-76
2021/06/03 09:54:07;;;;;;;8.95;5.38;;;;;;;;;;5005214;28;20225;-76
2021/06/03 09:56:35;;;;;;;5.70;4.70;;;;;;;;;;5001172;28;20679;-76
2021/06/03 09:59:03;;;;;;;5.78;4.88;;;;;;;;;;4993887;28;20191;-76
2021/06/03 10:01:44;;;;;;;6.43;5.60;;;;;;;;;;4996884;28;20184;-76
2021/06/03 10:04:12;;;;;;;5.78;5.15;;;;;;;;;;4997405;28;20687;-79
2021/06/03 10:07:01;;;;;;;6.07;5.30;;;;;;;;;;5000314;28;20267;-78
2021/06/03 10:09:41;;;;;;;6.38;5.22;;;;;;;;;;5004668;28;20203;-76
2021/06/03 10:12:23;;;;;;;6.05;5.18;;;;;;;;;;5002863;28;20203;-76
2021/06/03 10:14:53;;;;;;;6.07;5.45;;;;;;;;;;5005034;28;20279;-78
2021/06/03 10:17:32;;;;;;;6.00;5.40;;;;;;;;;;5004715;28;20187;-75
2021/06/03 10:20:01;;;;;;;6.47;4.88;;;;;;;;;;4996249;28;20286;-79
2021/06/03 10:22:29;;;;;;;5.47;4.97;;;;;;;;;;5004928;28;20210;-82
2021/06/03 10:24:55;;;;;;;5.70;5.20;;;;;;;;;;5006156;28;20706;-74
2021/06/03 10:27:23;;;;;;;3.97;3.60;;;;;;;;;;5006684;28;20183;-78
2021/06/03 10:29:49;;;;;;;6.22;4.45;;;;;;;;;;5008258;28;20528;-76
2021/06/03 10:32:20;;;;;;;5.32;4.57;;;;;;;;;;5008601;28;20668;-75
2021/06/03 10:34:46;;;;;;;4.97;4.57;;;;;;;;;;5005235;28;20187;-76
2021/06/03 10:37:15;;;;;;;5.45;4.82;;;;;;;;;;5006825;28;20194;-76
2021/06/03 10:39:43;;;;;;;5.47;4.57;;;;;;;;;;5005764;28;20195;-76
2021/06/03 10:42:12;;;;;;;5.43;4.93;;;;;;;;;;5006643;28;20184;-78
2021/06/03 10:44:39;;;;;;;5.45;4.20;;;;;;;;;;4989801;28;20824;-75
2021/06/03 10:47:06;;;;;;;5.00;4.50;;;;;;;;;;4988426;28;20551;-79
2021/06/03 10:49:33;;;;;;;4.32;3.78;;;;;;;;;;5001215;28;20404;-76
2021/06/03 10:52:07;;;;;;;4.78;4.35;;;;;;;;;;5007490;28;20667;-80
2021/06/03 10:54:54;;;;;;;4.90;4.18;;;;;;;;;;5007738;28;20655;-75
2021/06/03 10:57:47;;;;;;;5.88;4.05;;;;;;;;;;5003344;28;20221;-78
2021/06/03 11:00:40;;;;;;;5.60;4.13;;;;;;;;;;4999479;28;20246;-79
2021/06/03 11:03:15;;;;;;;4.50;4.10;;;;;;;;;;5001599;28;20810;-76
2021/06/03 11:05:46;;;;;;;4.22;3.83;;;;;;;;;;5002145;28;20195;-75
2021/06/03 11:08:35;;;;;;;4.60;3.90;;;;;;;;;;5001334;28;20179;-75
2021/06/03 11:11:13;;;;;;;4.40;4.00;;;;;;;;;;5003105;28;20377;-76
2021/06/03 11:13:47;;;;;;;7.10;4.50;;;;;;;;;;4999451;28;20599;-76
2021/06/03 11:16:26;;;;;;;5.70;3.90;;;;;;;;;;4996031;28;20199;-75
2021/06/03 11:18:56;;;;;;;4.38;3.95;;;;;;;;;;5001253;28;20678;-75
2021/06/03 11:21:33;;;;;;;5.30;3.90;;;;;;;;;;4997995;28;20672;-75
2021/06/03 11:24:00;;;;;;;4.70;3.78;;;;;;;;;;5002811;28;20203;-74
2021/06/03 11:26:42;;;;;;;7.78;4.15;;;;;;;;;;5002031;28;20187;-75
2021/06/03 11:29:18;;;;;;;6.47;4.50;;;;;;;;;;5003784;28;20679;-74
2021/06/03 11:32:01;;;;;;;5.53;3.85;;;;;;;;;;4994533;28;20246;-77
2021/06/03 11:34:40;;;;;;;5.35;4.25;;;;;;;;;;4997436;28;20190;-75
2021/06/03 11:37:21;;;;;;;5.38;4.85;;;;;;;;;;4999976;28;20544;-75
2021/06/03 11:39:47;;;;;;;4.45;3.65;;;;;;;;;;5003859;28;20257;-76
2021/06/03 11:42:29;;;;;;;4.40;4.00;;;;;;;;;;5004954;28;20211;-74
2021/06/03 11:45:18;;;;;;;4.97;4.13;;;;;;;;;;5005268;28;20659;-78
2021/06/03 11:47:43;;;;;;;4.07;3.35;;;;;;;;;;4997549;28;20187;-76
2021/06/03 11:50:11;;;;;;;3.72;3.42;;;;;;;;;;4999619;28;20187;-76
2021/06/03 11:52:37;;;;;;;4.70;3.38;;;;;;;;;;4987005;28;20219;-76
2021/06/03 11:55:07;;;;;;;4.95;3.17;;;;;;;;;;5003583;28;20246;-77
2021/06/03 11:57:35;;;;;;;3.40;3.10;;;;;;;;;;4994636;28;20202;-76
2021/06/03 12:00:06;;;;;;;5.78;3.17;;;;;;;;;;5000857;28;20191;-76
2021/06/03 12:02:44;;;;;;;4.18;3.08;;;;;;;;;;4995939;28;20204;-76
2021/06/03 12:05:09;;;;;;;4.72;3.13;;;;;;;;;;4997654;28;20278;-75
2021/06/03 12:07:51;;;;;;;3.58;2.83;;;;;;;;;;4997160;28;20613;-75
2021/06/03 12:10:41;;;;;;;3.33;3.03;;;;;;;;;;4991238;28;20191;-76
2021/06/03 12:13:20;;;;;;;3.95;3.20;;;;;;;;;;5000666;28;20220;-74
2021/06/03 12:15:46;;;;;;;4.43;3.15;;;;;;;;;;5000676;28;20559;-77
2021/06/03 12:18:14;;;;;;;4.13;3.28;;;;;;;;;;5004373;28;20191;-85
2021/06/03 12:20:40;;;;;;;4.32;3.50;;;;;;;;;;5005561;28;20204;-86
2021/06/03 12:23:08;;;;;;;6.22;3.28;;;;;;;;;;5006804;28;20223;-84
2021/06/03 12:25:37;;;;;;;5.03;3.28;;;;;;;;;;4996264;28;20187;-82
2021/06/03 12:28:03;;;;;;;6.15;3.30;;;;;;;;;;5003360;28;20353;-84
2021/06/03 12:30:33;;;;;;;3.95;3.33;;;;;;;;;;5006068;28;20801;-83
2021/06/03 12:33:04;;;;;;;5.15;3.60;;;;;;;;;;4996599;28;20262;-84
2021/06/03 12:35:47;;;;;;;6.47;3.50;;;;;;;;;;4989851;28;20651;-83
2021/06/03 12:38:36;;;;;;;3.60;3.30;;;;;;;;;;5003728;28;20183;-83
2021/06/03 12:41:10;;;;;;;3.67;3.38;;;;;;;;;;4990732;28;20191;-83
2021/06/03 12:43:44;;;;;;;7.15;3.40;;;;;;;;;;4991046;28;20231;-82
2021/06/03 12:46:10;;;;;;;5.13;3.40;;;;;;;;;;4997786;28;20211;-82
2021/06/03 12:48:36;;;;;;;3.53;3.17;;;;;;;;;;5001478;28;20187;-84
2021/06/03 12:51:07;;;;;;;4.20;3.35;;;;;;;;;;5007188;28;20546;-85
2021/06/03 12:53:36;;;;;;;4.22;3.17;;;;;;;;;;4990992;28;20211;-85
2021/06/03 12:56:22;;;;;;;4.63;3.38;;;;;;;;;;4988193;28;20188;-85
2021/06/03 12:58:47;;;;;;;3.42;3.13;;;;;;;;;;5002990;28;20226;-85
2021/06/03 13:01:15;;;;;;;3.80;3.28;;;;;;;;;;5004338;28;20608;-84
2021/06/03 13:03:40;;;;;;;4.47;2.80;;;;;;;;;;5005726;28;20700;-83
2021/06/03 13:06:10;;;;;;;3.13;2.83;;;;;;;;;;5005910;28;20223;-85
2021/06/03 13:08:47;;;;;;;3.70;2.97;;;;;;;;;;4982899;28;20191;-86
2021/06/03 13:11:34;;;;;;;4.57;2.88;;;;;;;;;;5003634;28;20667;-87
2021/06/03 13:14:19;;;;;;;5.50;3.30;;;;;;;;;;4997552;28;20219;-86
2021/06/03 13:16:46;;;;;;;3.85;2.80;;;;;;;;;;4989677;28;20219;-85
2021/06/03 13:19:18;;;;;;;6.45;2.80;;;;;;;;;;5004429;28;20230;-85
2021/06/03 13:21:45;;;;;;;4.80;2.88;;;;;;;;;;5000883;28;20254;-86
2021/06/03 13:24:22;;;;;;;4.47;3.03;;;;;;;;;;4991199;28;20228;-87
2021/06/03 13:26:47;;;;;;;3.55;3.10;;;;;;;;;;5003019;28;20238;-86
2021/06/03 13:29:13;;;;;;;7.60;2.97;;;;;;;;;;5006895;28;20614;-87
2021/06/03 13:31:41;;;;;;;5.03;3.15;;;;;;;;;;5003727;28;20254;-84
2021/06/03 13:34:26;;;;;;;3.28;2.90;;;;;;;;;;5009070;28;20225;-87
2021/06/03 13:36:57;;;;;;;4.75;3.28;;;;;;;;;;5001673;28;20270;-84
2021/06/03 13:39:30;;;;;;;5.93;3.13;;;;;;;;;;5010038;28;20715;-84
2021/06/03 13:41:57;;;;;;;3.53;3.22;;;;;;;;;;5004394;28;20188;-84
2021/06/03 13:44:23;;;;;;;3.28;2.65;;;;;;;;;;5004975;28;20192;-84
2021/06/03 13:46:48;;;;;;;3.83;3.00;;;;;;;;;;5001904;28;20182;-84
2021/06/03 13:49:29;;;;;;;7.97;3.22;;;;;;;;;;5002690;28;20184;-84
2021/06/03 13:52:00;;;;;;;3.03;2.83;;;;;;;;;;5007511;28;20207;-85
2021/06/03 13:54:25;;;;;;;4.35;3.20;;;;;;;;;;5002737;28;20435;-85
2021/06/03 13:56:51;;;;;;;3.63;2.78;;;;;;;;;;5002363;28;20286;-86
2021/06/03 13:59:16;;;;;;;3.20;2.35;;;;;;;;;;4997596;28;20670;-85
2021/06/03 14:01:47;;;;;;;3.47;3.00;;;;;;;;;;4998934;28;20192;-85
2021/06/03 14:04:18;;;;;;;4.70;3.33;;;;;;;;;;5003987;28;20643;-85
2021/06/03 14:06:49;;;;;;;4.28;3.33;;;;;;;;;;5003041;28;20262;-84
2021/06/03 14:09:17;;;;;;;4.53;2.88;;;;;;;;;;5003997;28;20192;-85
2021/06/03 14:12:01;;;;;;;7.50;3.15;;;;;;;;;;5003540;28;20214;-85
2021/06/03 14:14:30;;;;;;;3.20;2.60;;;;;;;;;;5001288;28;20278;-88
2021/06/03 14:17:07;;;;;;;4.38;3.03;;;;;;;;;;5003514;28;20183;-86
2021/06/03 14:19:46;;;;;;;3.45;3.10;;;;;;;;;;5005556;28;20350;-85
2021/06/03 14:22:24;;;;;;;3.75;3.05;;;;;;;;;;4988425;28;20236;-85
2021/06/03 14:24:55;;;;;;;5.72;3.15;;;;;;;;;;5002679;28;20208;-86
2021/06/03 14:27:25;;;;;;;4.78;3.33;;;;;;;;;;4998506;28;20191;-80
2021/06/03 14:30:13;;;;;;;4.38;2.83;;;;;;;;;;4999149;28;20175;-85
2021/06/03 14:32:53;;;;;;;3.15;2.88;;;;;;;;;;4990568;28;20645;-80
2021/06/03 14:35:24;;;;;;;6.03;2.97;;;;;;;;;;5004079;28;20182;-86
2021/06/03 14:37:58;;;;;;;3.17;2.65;;;;;;;;;;5002407;28;20191;-86
2021/06/03 14:40:30;;;;;;;5.15;2.85;;;;;;;;;;4995972;28;20193;-86
2021/06/03 14:43:14;;;;;;;4.47;2.67;;;;;;;;;;4995272;28;20235;-84
2021/06/03 14:45:45;;;;;;;2.90;2.50;;;;;;;;;;4993952;28;21111;-84
2021/06/03 14:48:21;;;;;;;4.78;2.55;;;;;;;;;;4996086;28;20679;-86
2021/06/03 14:50:48;;;;;;;2.80;2.30;;;;;;;;;;4999801;28;20670;-85
2021/06/03 14:53:18;;;;;;;3.17;2.10;;;;;;;;;;4999476;28;20207;-85
2021/06/03 14:55:45;;;;;;;3.13;2.40;;;;;;;;;;4999728;28;20658;-86